Time;durP1;ratioP1;P1;durP2;ratioP2;P2;SDS_P1;SDS_P2;PMS_P1;PMS_P2;Temp;Humidity;BMP_temperature;BMP_pressure;BME280_temperature;BME280_humidity;BME280_pressure;Samples;Min_cycle;Max_cycle;Signal;HPM_P1;HPM_P2
2023/08/18 00:02:22;;;;;;;;;;;20.80;75.60;;;;;;5073881;28;19954;-85
2023/08/18 00:04:47;;;;;;;;;;;20.80;75.60;;;;;;5074046;28;20360;-84
2023/08/18 00:07:13;;;;;;;;;;;20.80;75.60;;;;;;5073653;28;19917;-84
2023/08/18 00:09:39;;;;;;;;;;;20.70;75.60;;;;;;5073435;28;19923;-84
2023/08/18 00:12:05;;;;;;;;;;;20.70;75.70;;;;;;5073665;28;19919;-82
2023/08/18 00:14:31;;;;;;;;;;;20.70;75.60;;;;;;5073568;28;19912;-83
2023/08/18 00:16:56;;;;;;;;;;;20.70;75.70;;;;;;5056700;28;19916;-83
2023/08/18 00:19:22;;;;;;;;;;;20.70;75.70;;;;;;5047429;28;19928;-83
2023/08/18 00:21:47;;;;;;;;;;;20.70;75.60;;;;;;5060244;28;19979;-83
2023/08/18 00:24:13;;;;;;;;;;;20.70;75.60;;;;;;5106927;28;19912;-83
2023/08/18 00:26:39;;;;;;;;;;;20.70;75.60;;;;;;5073729;28;19916;-83
2023/08/18 00:29:04;;;;;;;;;;;20.70;75.60;;;;;;5056552;28;19966;-82
2023/08/18 00:31:30;;;;;;;;;;;20.70;75.70;;;;;;5056761;28;19912;-82
2023/08/18 00:33:55;;;;;;;;;;;20.70;75.70;;;;;;5073311;28;19908;-81
2023/08/18 00:36:21;;;;;;;;;;;20.70;75.80;;;;;;5073248;28;20591;-83
2023/08/18 00:38:47;;;;;;;;;;;20.60;75.70;;;;;;5056744;28;19912;-82
2023/08/18 00:41:13;;;;;;;;;;;20.60;75.70;;;;;;5072929;28;19918;-82
2023/08/18 00:43:38;;;;;;;;;;;20.60;75.70;;;;;;5091236;28;19920;-82
2023/08/18 00:46:04;;;;;;;;;;;20.60;75.70;;;;;;5056253;28;19931;-82
2023/08/18 00:48:30;;;;;;;;;;;20.50;75.70;;;;;;5056128;28;19924;-83
2023/08/18 00:50:56;;;;;;;;;;;20.50;75.70;;;;;;5056192;28;20377;-83
2023/08/18 00:53:22;;;;;;;;;;;20.50;75.70;;;;;;5072819;28;19957;-82
2023/08/18 00:55:48;;;;;;;;;;;20.40;75.70;;;;;;5056091;28;19959;-81
2023/08/18 00:58:14;;;;;;;;;;;20.40;75.70;;;;;;5091061;28;19922;-82
2023/08/18 01:00:39;;;;;;;;;;;20.40;75.70;;;;;;5055953;28;20326;-81
2023/08/18 01:03:06;;;;;;;;;;;20.40;75.70;;;;;;5056187;28;19916;-82
2023/08/18 01:05:32;;;;;;;;;;;20.30;75.70;;;;;;5055752;28;20283;-82
2023/08/18 01:07:58;;;;;;;;;;;20.30;75.80;;;;;;5072438;28;20006;-82
2023/08/18 01:10:24;;;;;;;;;;;20.40;75.80;;;;;;5055692;28;19969;-82
2023/08/18 01:12:50;;;;;;;;;;;20.40;75.80;;;;;;5055935;28;19916;-83
2023/08/18 01:15:15;;;;;;;;;;;20.40;75.80;;;;;;5072385;28;19909;-82
2023/08/18 01:18:01;;;;;;;;;;;20.40;75.70;;;;;;5090574;28;19916;-83
2023/08/18 01:20:27;;;;;;;;;;;20.40;75.70;;;;;;5051792;28;20011;-83
2023/08/18 01:23:03;;;;;;;;;;;20.40;75.70;;;;;;5052309;28;19912;-83
2023/08/18 01:25:29;;;;;;;;;;;20.40;75.70;;;;;;5070229;28;19922;-83
2023/08/18 01:27:55;;;;;;;;;;;20.30;75.60;;;;;;5070246;28;19915;-83
2023/08/18 01:30:23;;;;;;;;;;;20.30;75.70;;;;;;5051937;28;20369;-84
2023/08/18 01:33:03;;;;;;;;;;;20.30;75.70;;;;;;5070191;28;19973;-83
2023/08/18 01:35:29;;;;;;;;;;;20.30;75.80;;;;;;5070152;28;19912;-83
2023/08/18 01:37:56;;;;;;;;;;;20.30;75.80;;;;;;5051967;28;19999;-83
2023/08/18 01:40:25;;;;;;;;;;;20.30;75.70;;;;;;5052129;28;19912;-83
2023/08/18 01:42:52;;;;;;;;;;;20.30;75.70;;;;;;5051968;28;19954;-83
2023/08/18 01:45:18;;;;;;;;;;;20.40;75.70;;;;;;5035380;28;19936;-82
2023/08/18 01:47:43;;;;;;;;;;;20.40;75.70;;;;;;5051960;28;19909;-83
2023/08/18 01:50:09;;;;;;;;;;;20.40;75.70;;;;;;5069654;28;19912;-84
2023/08/18 01:52:35;;;;;;;;;;;20.40;75.70;;;;;;5051889;28;20328;-83
2023/08/18 01:55:01;;;;;;;;;;;20.30;75.60;;;;;;5051813;28;19909;-83
2023/08/18 01:57:26;;;;;;;;;;;20.30;75.60;;;;;;5051711;28;19920;-82
2023/08/18 01:59:52;;;;;;;;;;;20.30;75.60;;;;;;5035143;28;19966;-83
2023/08/18 02:02:17;;;;;;;;;;;20.30;75.60;;;;;;5042921;28;19916;-82
2023/08/18 02:04:43;;;;;;;;;;;20.30;75.70;;;;;;5047770;28;19931;-83
2023/08/18 02:07:09;;;;;;;;;;;20.30;75.70;;;;;;5071539;28;20456;-83
2023/08/18 02:09:36;;;;;;;;;;;20.20;75.60;;;;;;5051704;28;19916;-83
2023/08/18 02:12:02;;;;;;;;;;;20.20;75.60;;;;;;5051374;28;19908;-83
2023/08/18 02:14:27;;;;;;;;;;;20.30;75.70;;;;;;5051649;28;19912;-83
2023/08/18 02:16:53;;;;;;;;;;;20.30;75.70;;;;;;5034202;28;20322;-82
2023/08/18 02:19:19;;;;;;;;;;;20.30;75.70;;;;;;5063671;28;19928;-82
2023/08/18 02:21:44;;;;;;;;;;;20.30;75.70;;;;;;5054399;28;20379;-83
2023/08/18 02:24:10;;;;;;;;;;;20.20;75.60;;;;;;5071020;28;19924;-82
2023/08/18 02:26:36;;;;;;;;;;;20.20;75.60;;;;;;5070986;28;19924;-83
2023/08/18 02:29:02;;;;;;;;;;;20.20;75.60;;;;;;5070917;28;19926;-83
2023/08/18 02:31:28;;;;;;;;;;;20.20;75.70;;;;;;5071172;28;19935;-83
2023/08/18 02:33:54;;;;;;;;;;;20.20;75.60;;;;;;5070967;28;20411;-83
2023/08/18 02:36:19;;;;;;;;;;;20.20;75.60;;;;;;5071044;28;19919;-83
2023/08/18 02:38:45;;;;;;;;;;;20.10;75.60;;;;;;5053897;28;19912;-83
2023/08/18 02:41:10;;;;;;;;;;;20.10;75.60;;;;;;5089044;28;19912;-83
2023/08/18 02:43:37;;;;;;;;;;;20.10;75.70;;;;;;5054693;28;20329;-82
2023/08/18 02:46:03;;;;;;;;;;;20.10;75.60;;;;;;5088827;28;19908;-83
2023/08/18 02:48:29;;;;;;;;;;;20.00;75.60;;;;;;5088743;28;19920;-83
2023/08/18 02:51:05;;;;;;;;;;;20.00;75.60;;;;;;5070839;28;19917;-77
2023/08/18 02:53:31;;;;;;;;;;;20.00;75.70;;;;;;5070692;28;19999;-84
2023/08/18 02:55:58;;;;;;;;;;;19.90;75.70;;;;;;5070470;28;19995;-84
2023/08/18 02:58:25;;;;;;;;;;;19.90;75.70;;;;;;5054224;28;20010;-83
2023/08/18 03:00:51;;;;;;;;;;;19.90;75.70;;;;;;5088804;28;19908;-84
2023/08/18 03:03:16;;;;;;;;;;;19.90;75.70;;;;;;5070409;28;19966;-84
2023/08/18 03:05:42;;;;;;;;;;;19.90;75.70;;;;;;5053774;28;19916;-84
2023/08/18 03:08:08;;;;;;;;;;;19.90;75.70;;;;;;5070157;28;20011;-84
2023/08/18 03:10:33;;;;;;;;;;;19.90;75.70;;;;;;5070264;28;19916;-84
2023/08/18 03:13:01;;;;;;;;;;;19.80;75.70;;;;;;5088559;28;20368;-85
2023/08/18 03:15:26;;;;;;;;;;;19.80;75.60;;;;;;5053881;28;19923;-84
2023/08/18 03:17:52;;;;;;;;;;;19.80;75.70;;;;;;5070238;28;19912;-83
2023/08/18 03:20:19;;;;;;;;;;;19.80;75.70;;;;;;5054026;28;19912;-85
2023/08/18 03:22:44;;;;;;;;;;;19.80;75.70;;;;;;5053761;28;19912;-82
2023/08/18 03:25:10;;;;;;;;;;;19.80;75.70;;;;;;5053652;28;20335;-84
2023/08/18 03:27:35;;;;;;;;;;;19.70;75.60;;;;;;5053624;28;19963;-84
2023/08/18 03:30:01;;;;;;;;;;;19.70;75.70;;;;;;5053401;28;19931;-83
2023/08/18 03:32:27;;;;;;;;;;;19.70;75.70;;;;;;5053440;28;20046;-85
2023/08/18 03:34:54;;;;;;;;;;;19.70;75.70;;;;;;5053322;28;19919;-84
2023/08/18 03:37:20;;;;;;;;;;;19.70;75.60;;;;;;5070121;28;19915;-85
2023/08/18 03:39:45;;;;;;;;;;;19.70;75.70;;;;;;5070260;28;19912;-84
2023/08/18 03:42:11;;;;;;;;;;;19.60;75.70;;;;;;5063600;28;19900;-84
2023/08/18 03:44:37;;;;;;;;;;;19.70;75.70;;;;;;5070790;28;19923;-84
2023/08/18 03:47:03;;;;;;;;;;;19.60;75.70;;;;;;5072017;28;20280;-83
2023/08/18 03:49:29;;;;;;;;;;;19.50;75.60;;;;;;5053145;28;19985;-84
2023/08/18 03:51:54;;;;;;;;;;;19.50;75.60;;;;;;5069730;28;20195;-83
2023/08/18 03:54:20;;;;;;;;;;;19.50;75.60;;;;;;5069921;28;19963;-83
2023/08/18 03:56:46;;;;;;;;;;;19.50;75.60;;;;;;5088229;28;19923;-84
2023/08/18 03:59:11;;;;;;;;;;;19.40;75.50;;;;;;5053327;28;20408;-83
2023/08/18 04:01:37;;;;;;;;;;;19.30;75.40;;;;;;5069813;28;20295;-83
2023/08/18 04:04:04;;;;;;;;;;;19.20;75.40;;;;;;5053570;28;20039;-83
2023/08/18 04:06:30;;;;;;;;;;;19.20;75.60;;;;;;5070493;28;19908;-84
2023/08/18 04:09:06;;;;;;;;;;;19.10;75.60;;;;;;5053772;28;19923;-84
2023/08/18 04:11:32;;;;;;;;;;;19.10;75.70;;;;;;5069867;28;19908;-85
2023/08/18 04:13:58;;;;;;;;;;;19.10;75.80;;;;;;5053136;28;20006;-83
2023/08/18 04:16:23;;;;;;;;;;;19.10;75.80;;;;;;5070056;28;20001;-84
2023/08/18 04:18:49;;;;;;;;;;;19.10;75.80;;;;;;5052822;28;19931;-84
2023/08/18 04:21:14;;;;;;;;;;;19.00;75.70;;;;;;5052766;28;19912;-84
2023/08/18 04:23:40;;;;;;;;;;;19.00;75.60;;;;;;5053161;28;20062;-84
2023/08/18 04:26:06;;;;;;;;;;;18.90;75.20;;;;;;5053337;28;19916;-84
2023/08/18 04:28:31;;;;;;;;;;;18.60;75.00;;;;;;5052908;28;19923;-83
2023/08/18 04:30:58;;;;;;;;;;;18.40;75.10;;;;;;5069724;28;19919;-84
2023/08/18 04:33:23;;;;;;;;;;;18.10;75.20;;;;;;5087902;28;19908;-83
2023/08/18 04:35:49;;;;;;;;;;;18.00;75.40;;;;;;5052989;28;19970;-83
2023/08/18 04:38:14;;;;;;;;;;;17.80;75.50;;;;;;5052622;28;19917;-83
2023/08/18 04:40:40;;;;;;;;;;;17.80;75.70;;;;;;5056786;28;19918;-83
2023/08/18 04:43:05;;;;;;;;;;;17.80;75.70;;;;;;5056578;28;19916;-83
2023/08/18 04:45:31;;;;;;;;;;;17.70;75.70;;;;;;5073330;28;19920;-83
2023/08/18 04:47:57;;;;;;;;;;;17.70;75.70;;;;;;5056279;28;19974;-83
2023/08/18 04:50:23;;;;;;;;;;;17.80;75.70;;;;;;5072765;28;19959;-83
2023/08/18 04:52:48;;;;;;;;;;;17.80;75.70;;;;;;5056213;28;20018;-83
2023/08/18 04:55:14;;;;;;;;;;;17.80;75.70;;;;;;5056093;28;19916;-83
2023/08/18 04:57:39;;;;;;;;;;;17.80;75.60;;;;;;5072951;28;19912;-83
2023/08/18 05:00:06;;;;;;;;;;;17.80;75.60;;;;;;5056124;28;19913;-83
2023/08/18 05:02:32;;;;;;;;;;;17.80;75.70;;;;;;5090932;28;19908;-83
2023/08/18 05:04:57;;;;;;;;;;;17.90;75.70;;;;;;5072714;28;20047;-82
2023/08/18 05:07:23;;;;;;;;;;;17.90;75.70;;;;;;5055935;28;20372;-83
2023/08/18 05:09:49;;;;;;;;;;;17.90;75.70;;;;;;5055973;28;19920;-83
2023/08/18 05:12:14;;;;;;;;;;;17.90;75.60;;;;;;5055918;28;19916;-83
2023/08/18 05:14:40;;;;;;;;;;;17.90;75.60;;;;;;5056008;28;19912;-83
2023/08/18 05:17:06;;;;;;;;;;;18.00;75.60;;;;;;5055993;28;19919;-83
2023/08/18 05:19:31;;;;;;;;;;;18.00;75.50;;;;;;5055554;28;19924;-83
2023/08/18 05:21:57;;;;;;;;;;;18.00;75.50;;;;;;5085771;28;19912;-83
2023/08/18 05:24:23;;;;;;;;;;;18.10;75.50;;;;;;5080342;28;19965;-83
2023/08/18 05:26:49;;;;;;;;;;;18.00;75.40;;;;;;5090742;28;19916;-83
2023/08/18 05:29:14;;;;;;;;;;;18.10;75.40;;;;;;5072214;28;19924;-77
2023/08/18 05:31:40;;;;;;;;;;;18.10;75.40;;;;;;5072433;28;19943;-84
2023/08/18 05:34:05;;;;;;;;;;;18.00;75.40;;;;;;5072491;28;19920;-84
2023/08/18 05:36:31;;;;;;;;;;;18.00;75.40;;;;;;5055563;28;19946;-83
2023/08/18 05:38:57;;;;;;;;;;;17.90;75.40;;;;;;5072106;28;19935;-84
2023/08/18 05:41:24;;;;;;;;;;;17.90;75.50;;;;;;5055383;28;19916;-83
2023/08/18 05:43:49;;;;;;;;;;;17.90;75.60;;;;;;5072017;28;19968;-83
2023/08/18 05:46:15;;;;;;;;;;;17.80;75.60;;;;;;5072675;28;19908;-83
2023/08/18 05:48:40;;;;;;;;;;;17.80;75.60;;;;;;5072097;28;19923;-83
2023/08/18 05:51:06;;;;;;;;;;;17.80;75.70;;;;;;5089213;28;19944;-83
2023/08/18 05:53:32;;;;;;;;;;;17.90;75.70;;;;;;5055726;28;19913;-83
2023/08/18 05:55:57;;;;;;;;;;;17.90;75.70;;;;;;5055197;28;20003;-83
2023/08/18 05:58:23;;;;;;;;;;;17.90;75.70;;;;;;5071880;28;20024;-82
2023/08/18 06:00:49;;;;;;;;;;;17.90;75.70;;;;;;5072130;28;20102;-82
2023/08/18 06:03:15;;;;;;;;;;;17.90;75.60;;;;;;5071902;28;20222;-83
2023/08/18 06:05:41;;;;;;;;;;;17.90;75.70;;;;;;5071670;28;20015;-83
2023/08/18 06:08:06;;;;;;;;;;;17.90;75.80;;;;;;5054606;28;20618;-83
2023/08/18 06:10:32;;;;;;;;;;;17.90;75.70;;;;;;5071684;28;19916;-83
2023/08/18 06:12:57;;;;;;;;;;;17.90;75.70;;;;;;5054991;28;19986;-83
2023/08/18 06:15:23;;;;;;;;;;;17.90;75.70;;;;;;5071324;28;20376;-84
2023/08/18 06:17:49;;;;;;;;;;;17.90;75.80;;;;;;5054529;28;20287;-83
2023/08/18 06:20:15;;;;;;;;;;;17.90;75.80;;;;;;5089611;28;19977;-83
2023/08/18 06:22:40;;;;;;;;;;;17.90;75.70;;;;;;5071564;28;20011;-83
2023/08/18 06:25:07;;;;;;;;;;;17.90;75.80;;;;;;5054967;28;20334;-83
2023/08/18 06:27:32;;;;;;;;;;;17.90;75.80;;;;;;5089449;28;19915;-82
2023/08/18 06:29:58;;;;;;;;;;;17.90;75.80;;;;;;5054435;28;19920;-83
2023/08/18 06:32:23;;;;;;;;;;;17.80;75.80;;;;;;5072914;28;19908;-82
2023/08/18 06:34:52;;;;;;;;;;;17.80;75.90;;;;;;5056966;28;20425;-83
2023/08/18 06:37:18;;;;;;;;;;;17.80;75.90;;;;;;5054471;28;19916;-83
2023/08/18 06:39:44;;;;;;;;;;;17.80;75.90;;;;;;5070635;28;19998;-84
2023/08/18 06:42:09;;;;;;;;;;;17.80;75.80;;;;;;5070963;28;20403;-84
2023/08/18 06:44:35;;;;;;;;;;;17.70;75.90;;;;;;5054272;28;19916;-83
2023/08/18 06:47:01;;;;;;;;;;;17.70;76.00;;;;;;5070668;28;19912;-82
2023/08/18 06:49:26;;;;;;;;;;;17.70;76.10;;;;;;5071011;28;19966;-82
2023/08/18 06:51:52;;;;;;;;;;;17.70;76.00;;;;;;5070567;28;19919;-83
2023/08/18 06:54:18;;;;;;;;;;;17.70;76.00;;;;;;5070911;28;19981;-82
2023/08/18 06:56:44;;;;;;;;;;;17.70;76.00;;;;;;5071094;28;20556;-79
2023/08/18 06:59:12;;;;;;;;;;;17.80;76.10;;;;;;5057445;28;20044;-79
2023/08/18 07:01:38;;;;;;;;;;;17.80;76.10;;;;;;5083873;28;20002;-83
2023/08/18 07:04:04;;;;;;;;;;;17.80;76.10;;;;;;5070967;28;19950;-83
2023/08/18 07:06:30;;;;;;;;;;;17.90;76.20;;;;;;5070911;28;19912;-83
2023/08/18 07:08:56;;;;;;;;;;;17.90;76.10;;;;;;5070508;28;19966;-83
2023/08/18 07:11:22;;;;;;;;;;;17.90;76.20;;;;;;5054042;28;19934;-81
2023/08/18 07:13:47;;;;;;;;;;;18.00;76.20;;;;;;5088716;28;19919;-83
2023/08/18 07:16:13;;;;;;;;;;;18.00;76.20;;;;;;5053952;28;19918;-83
2023/08/18 07:18:38;;;;;;;;;;;18.00;76.20;;;;;;5053561;28;19932;-69
2023/08/18 07:21:04;;;;;;;;;;;18.00;76.20;;;;;;5088982;28;19974;-83
2023/08/18 07:23:30;;;;;;;;;;;18.00;76.40;;;;;;5070372;28;20442;-83
2023/08/18 07:25:55;;;;;;;;;;;18.10;76.40;;;;;;5070085;28;19908;-84
2023/08/18 07:28:21;;;;;;;;;;;18.00;76.50;;;;;;5070076;28;19912;-83
2023/08/18 07:30:46;;;;;;;;;;;18.00;76.40;;;;;;5053892;28;20379;-84
2023/08/18 07:33:12;;;;;;;;;;;18.00;76.50;;;;;;5053500;28;19978;-83
2023/08/18 07:35:38;;;;;;;;;;;18.00;76.50;;;;;;5070807;28;19912;-83
2023/08/18 07:38:03;;;;;;;;;;;18.10;76.50;;;;;;5053192;28;19912;-83
2023/08/18 07:40:29;;;;;;;;;;;18.00;76.50;;;;;;5053018;28;19912;-84
2023/08/18 07:42:55;;;;;;;;;;;18.10;76.50;;;;;;5088368;28;19919;-83
2023/08/18 07:45:20;;;;;;;;;;;18.00;76.40;;;;;;5088136;28;19920;-83
2023/08/18 07:47:47;;;;;;;;;;;18.00;76.60;;;;;;5070174;28;19919;-84
2023/08/18 07:50:13;;;;;;;;;;;17.90;76.60;;;;;;5053101;28;19920;-83
2023/08/18 07:52:40;;;;;;;;;;;17.90;76.70;;;;;;5069975;28;20336;-83
2023/08/18 07:55:07;;;;;;;;;;;18.00;76.80;;;;;;5070268;28;19935;-83
2023/08/18 07:57:33;;;;;;;;;;;18.00;76.70;;;;;;5070324;28;19912;-83
2023/08/18 08:00:00;;;;;;;;;;;18.00;76.70;;;;;;5070715;28;19951;-83
2023/08/18 08:02:26;;;;;;;;;;;18.00;76.70;;;;;;5070534;28;20332;-84
2023/08/18 08:04:52;;;;;;;;;;;18.10;76.80;;;;;;5053800;28;19912;-83
2023/08/18 08:07:18;;;;;;;;;;;18.10;76.70;;;;;;5053524;28;20292;-83
2023/08/18 08:09:43;;;;;;;;;;;18.20;76.60;;;;;;5053655;28;19958;-82
2023/08/18 08:12:09;;;;;;;;;;;18.20;76.60;;;;;;5089629;28;19919;-83
2023/08/18 08:14:34;;;;;;;;;;;18.20;76.50;;;;;;5056190;28;19916;-82
2023/08/18 08:17:00;;;;;;;;;;;18.20;76.40;;;;;;5058170;28;19962;-76
2023/08/18 08:19:26;;;;;;;;;;;18.20;76.40;;;;;;5073600;28;20008;-83
2023/08/18 08:21:52;;;;;;;;;;;18.20;76.30;;;;;;5057464;28;20317;-81
2023/08/18 08:24:18;;;;;;;;;;;18.10;76.30;;;;;;5074118;28;19912;-82
2023/08/18 08:26:43;;;;;;;;;;;18.10;76.40;;;;;;5073452;28;20320;-83
2023/08/18 08:29:09;;;;;;;;;;;18.00;76.60;;;;;;5056742;28;19916;-83
2023/08/18 08:31:35;;;;;;;;;;;18.00;76.70;;;;;;5073383;28;19912;-84
2023/08/18 08:34:01;;;;;;;;;;;18.00;76.80;;;;;;5091374;28;19908;-83
2023/08/18 08:36:32;;;;;;;;;;;18.00;76.70;;;;;;5057062;28;19916;-82
2023/08/18 08:39:01;;;;;;;;;;;17.90;76.60;;;;;;5105338;28;20380;-84
2023/08/18 08:41:27;;;;;;;;;;;17.90;76.70;;;;;;5074839;28;19922;-84
2023/08/18 08:43:53;;;;;;;;;;;18.00;76.80;;;;;;5072863;28;20313;-70
2023/08/18 08:46:19;;;;;;;;;;;18.00;76.80;;;;;;5090764;28;19962;-79
2023/08/18 08:48:46;;;;;;;;;;;18.10;76.80;;;;;;5056711;28;20284;-84
2023/08/18 08:51:11;;;;;;;;;;;18.20;76.80;;;;;;5073260;28;19908;-84
2023/08/18 08:53:39;;;;;;;;;;;18.30;76.70;;;;;;5072888;28;19920;-81
2023/08/18 08:56:06;;;;;;;;;;;18.30;76.50;;;;;;5073056;28;20335;-83
2023/08/18 08:58:32;;;;;;;;;;;18.40;76.50;;;;;;5073657;28;19930;-83
2023/08/18 09:01:01;;;;;;;;;;;18.40;76.40;;;;;;5090840;28;19918;-83
2023/08/18 09:03:29;;;;;;;;;;;18.40;76.40;;;;;;5072466;28;19939;-83
2023/08/18 09:05:55;;;;;;;;;;;18.40;76.40;;;;;;5072350;28;19919;-84
2023/08/18 09:08:21;;;;;;;;;;;18.30;76.50;;;;;;5074511;28;20260;-87
2023/08/18 09:10:47;;;;;;;;;;;18.30;76.50;;;;;;5087586;28;19960;-86
2023/08/18 09:13:12;;;;;;;;;;;18.30;76.50;;;;;;5100487;28;19928;-86
2023/08/18 09:15:42;;;;;;;;;;;18.30;76.40;;;;;;5100169;28;19916;-76
2023/08/18 09:18:08;;;;;;;;;;;18.30;76.50;;;;;;5115525;28;19907;-86
2023/08/18 09:20:34;;;;;;;;;;;18.30;76.50;;;;;;5096278;28;19939;-85
2023/08/18 09:23:00;;;;;;;;;;;18.40;76.50;;;;;;5098441;28;20011;-85
2023/08/18 09:25:26;;;;;;;;;;;18.40;76.40;;;;;;5077050;28;19919;-86
2023/08/18 09:27:51;;;;;;;;;;;18.50;76.30;;;;;;5060608;28;19912;-86
2023/08/18 09:30:17;;;;;;;;;;;18.50;76.30;;;;;;5085131;28;19948;-86
2023/08/18 09:32:43;;;;;;;;;;;18.50;76.40;;;;;;5093036;28;19912;-86
2023/08/18 09:35:12;;;;;;;;;;;18.50;76.40;;;;;;5077854;28;19917;-87
2023/08/18 09:37:37;;;;;;;;;;;18.50;76.50;;;;;;5061355;28;19989;-86
2023/08/18 09:40:04;;;;;;;;;;;18.50;76.40;;;;;;5075499;28;20344;-86
2023/08/18 09:42:30;;;;;;;;;;;18.50;76.50;;;;;;5075978;28;20328;-84
2023/08/18 09:44:55;;;;;;;;;;;18.60;76.60;;;;;;5093812;28;19919;-86
2023/08/18 09:47:27;;;;;;;;;;;18.70;76.70;;;;;;5075802;28;19908;-82
2023/08/18 09:49:53;;;;;;;;;;;18.80;76.50;;;;;;5078361;28;19955;-84
2023/08/18 09:52:21;;;;;;;;;;;19.00;76.50;;;;;;5054774;28;19970;-84
2023/08/18 09:55:09;;;;;;;;;;;19.00;76.40;;;;;;5073987;28;19999;-86
2023/08/18 09:57:39;;;;;;;;;;;19.20;76.50;;;;;;5093469;28;19912;-85
2023/08/18 10:00:07;;;;;;;;;;;19.40;76.40;;;;;;5075394;28;19919;-85
2023/08/18 10:02:33;;;;;;;;;;;19.50;76.50;;;;;;5073488;28;19908;-85
2023/08/18 10:04:59;;;;;;;;;;;19.60;76.40;;;;;;5073942;28;19960;-87
2023/08/18 10:07:25;;;;;;;;;;;19.70;76.40;;;;;;5073328;28;19913;-83
2023/08/18 10:09:51;;;;;;;;;;;19.70;76.20;;;;;;5074251;28;19919;-82
2023/08/18 10:12:17;;;;;;;;;;;19.70;76.20;;;;;;5071054;28;19916;-77
2023/08/18 10:14:43;;;;;;;;;;;19.60;76.30;;;;;;5070654;28;20003;-79
2023/08/18 10:17:10;;;;;;;;;;;19.60;76.40;;;;;;5073407;28;19920;-80
2023/08/18 10:19:48;;;;;;;;;;;19.60;76.40;;;;;;5071561;28;19928;-77
2023/08/18 10:22:15;;;;;;;;;;;19.60;76.40;;;;;;5069804;28;20309;-76
2023/08/18 10:24:40;;;;;;;;;;;19.60;76.40;;;;;;5089245;28;19912;-82
2023/08/18 10:27:10;;;;;;;;;;;19.60;76.40;;;;;;5072342;28;19919;-79
2023/08/18 10:29:36;;;;;;;;;;;19.60;76.40;;;;;;5072328;28;19924;-79
2023/08/18 10:32:08;;;;;;;;;;;19.60;76.40;;;;;;5091362;28;19961;-78
2023/08/18 10:34:35;;;;;;;;;;;19.60;76.30;;;;;;5089701;28;19912;-78
2023/08/18 10:37:03;;;;;;;;;;;19.50;76.20;;;;;;5071478;28;19977;-79
2023/08/18 10:39:36;;;;;;;;;;;19.40;76.30;;;;;;5089950;28;19918;-79
2023/08/18 10:42:10;;;;;;;;;;;19.30;76.40;;;;;;5071941;28;20304;-82
2023/08/18 10:44:35;;;;;;;;;;;19.30;76.40;;;;;;5089296;28;19923;-82
2023/08/18 10:47:05;;;;;;;;;;;19.30;76.40;;;;;;5089469;28;19995;-78
2023/08/18 10:49:30;;;;;;;;;;;19.30;76.50;;;;;;5071268;28;19978;-79
2023/08/18 10:51:56;;;;;;;;;;;19.30;76.40;;;;;;5089490;28;20364;-77
2023/08/18 10:54:23;;;;;;;;;;;19.30;76.50;;;;;;5089734;28;19965;-82
2023/08/18 10:56:48;;;;;;;;;;;19.40;76.50;;;;;;5089675;28;19912;-83
2023/08/18 10:59:14;;;;;;;;;;;19.40;76.40;;;;;;5054477;28;20383;-77
2023/08/18 11:01:40;;;;;;;;;;;19.50;76.50;;;;;;5071089;28;20337;-83
2023/08/18 11:04:07;;;;;;;;;;;19.50;76.40;;;;;;5060178;28;19916;-83
2023/08/18 11:06:33;;;;;;;;;;;19.50;76.50;;;;;;5052577;28;19919;-79
2023/08/18 11:08:58;;;;;;;;;;;19.40;76.40;;;;;;5035498;28;19916;-83
2023/08/18 11:11:27;;;;;;;;;;;19.50;76.70;;;;;;5052888;28;19973;-82
2023/08/18 11:13:53;;;;;;;;;;;19.40;76.70;;;;;;5052311;28;20418;-82
2023/08/18 11:16:18;;;;;;;;;;;19.40;76.80;;;;;;5035706;28;19920;-82
2023/08/18 11:18:44;;;;;;;;;;;19.40;76.80;;;;;;4976786;28;2104360;-70
2023/08/18 11:21:09;;;;;;;;;;;19.40;76.90;;;;;;5068857;28;19980;-74
2023/08/18 11:23:35;;;;;;;;;;;19.50;77.00;;;;;;5068729;28;19951;-77
2023/08/18 11:26:01;;;;;;;;;;;19.50;76.90;;;;;;5051263;28;20541;-77
2023/08/18 11:28:27;;;;;;;;;;;19.50;76.90;;;;;;5052098;28;19920;-74
2023/08/18 11:30:54;;;;;;;;;;;19.50;77.00;;;;;;5069612;28;20272;-76
2023/08/18 11:33:19;;;;;;;;;;;19.60;77.10;;;;;;5051798;28;19918;-79
2023/08/18 11:35:45;;;;;;;;;;;19.60;77.50;;;;;;5051792;28;20368;-76
2023/08/18 11:38:11;;;;;;;;;;;19.70;77.10;;;;;;5070221;28;20031;-80
2023/08/18 11:40:42;;;;;;;;;;;19.70;77.10;;;;;;5069960;28;20015;-81
2023/08/18 11:43:09;;;;;;;;;;;19.70;77.00;;;;;;5069876;28;20547;-80
2023/08/18 11:45:35;;;;;;;;;;;19.80;77.10;;;;;;5070192;28;20007;-80
2023/08/18 11:48:01;;;;;;;;;;;19.80;77.10;;;;;;5069708;28;19952;-80
2023/08/18 11:50:30;;;;;;;;;;;19.90;77.10;;;;;;5051388;28;19912;-81
2023/08/18 11:52:56;;;;;;;;;;;19.90;77.00;;;;;;5056063;28;19932;-81
2023/08/18 11:55:29;;;;;;;;;;;19.90;77.00;;;;;;5034783;28;19917;-80
2023/08/18 11:57:54;;;;;;;;;;;19.90;77.00;;;;;;5069737;28;19909;-80
2023/08/18 12:00:29;;;;;;;;;;;19.90;77.00;;;;;;5035753;28;19939;-84
2023/08/18 12:02:55;;;;;;;;;;;20.00;77.00;;;;;;5051735;28;19915;-82
2023/08/18 12:05:22;;;;;;;;;;;19.90;77.00;;;;;;5052040;28;19913;-87
2023/08/18 12:07:48;;;;;;;;;;;19.90;77.10;;;;;;5051417;28;19916;-82
2023/08/18 12:10:14;;;;;;;;;;;19.90;77.20;;;;;;5051507;28;20272;-81
2023/08/18 12:12:40;;;;;;;;;;;19.80;77.20;;;;;;5052057;28;19920;-82
2023/08/18 12:15:06;;;;;;;;;;;19.80;77.30;;;;;;5038037;28;19912;-78
2023/08/18 12:17:32;;;;;;;;;;;19.80;77.40;;;;;;5051779;28;19940;-83
2023/08/18 12:19:57;;;;;;;;;;;19.80;77.40;;;;;;5069520;28;19966;-81
2023/08/18 12:22:23;;;;;;;;;;;19.70;77.30;;;;;;5052437;28;19919;-82
2023/08/18 12:24:51;;;;;;;;;;;19.70;77.40;;;;;;5039910;28;20379;-82
2023/08/18 12:27:17;;;;;;;;;;;19.80;77.40;;;;;;5056006;28;20292;-82
2023/08/18 12:29:43;;;;;;;;;;;19.80;77.30;;;;;;5055282;28;19909;-81
2023/08/18 12:32:09;;;;;;;;;;;19.70;77.30;;;;;;5034556;28;20335;-79
2023/08/18 12:34:35;;;;;;;;;;;19.70;77.40;;;;;;5034816;28;20307;-80
2023/08/18 12:37:00;;;;;;;;;;;19.70;77.40;;;;;;5050406;28;19939;-77
2023/08/18 12:39:26;;;;;;;;;;;19.70;77.40;;;;;;5050981;28;20256;-78
2023/08/18 12:41:52;;;;;;;;;;;19.80;77.50;;;;;;5069412;28;19983;-80
2023/08/18 12:44:18;;;;;;;;;;;19.80;77.40;;;;;;5068862;28;19913;-79
2023/08/18 12:46:44;;;;;;;;;;;19.80;77.40;;;;;;5068931;28;20280;-79
2023/08/18 12:49:09;;;;;;;;;;;19.80;77.40;;;;;;5068932;28;19920;-77
2023/08/18 12:51:35;;;;;;;;;;;19.80;77.40;;;;;;5034824;28;19916;-79
2023/08/18 12:54:00;;;;;;;;;;;19.80;77.30;;;;;;5068986;28;19919;-79
2023/08/18 12:56:26;;;;;;;;;;;19.80;77.30;;;;;;5068336;28;19908;-80
2023/08/18 12:58:51;;;;;;;;;;;19.70;77.30;;;;;;5050707;28;19991;-79
2023/08/18 13:01:17;;;;;;;;;;;19.80;77.50;;;;;;5053632;28;19913;-80
2023/08/18 13:03:42;;;;;;;;;;;19.80;77.40;;;;;;5055002;28;19999;-77
2023/08/18 13:06:08;;;;;;;;;;;19.80;77.40;;;;;;5054478;28;19928;-76
2023/08/18 13:08:33;;;;;;;;;;;19.80;77.30;;;;;;5037023;28;19912;-79
2023/08/18 13:10:59;;;;;;;;;;;19.80;77.50;;;;;;5039079;28;19912;-84
2023/08/18 13:13:25;;;;;;;;;;;19.90;77.60;;;;;;5056066;28;19987;-80
2023/08/18 13:15:50;;;;;;;;;;;20.00;77.50;;;;;;5038614;28;19919;-83
2023/08/18 13:18:16;;;;;;;;;;;20.10;77.50;;;;;;5072464;28;20248;-76
2023/08/18 13:20:41;;;;;;;;;;;20.10;77.40;;;;;;5072964;28;19974;-79
2023/08/18 13:23:07;;;;;;;;;;;20.20;77.40;;;;;;5054058;28;19995;-80
2023/08/18 13:25:34;;;;;;;;;;;20.30;77.40;;;;;;5036839;28;19920;-78
2023/08/18 13:28:00;;;;;;;;;;;20.40;77.40;;;;;;5072259;28;19974;-80
2023/08/18 13:30:26;;;;;;;;;;;20.60;77.40;;;;;;5082852;28;19991;-78
2023/08/18 13:32:51;;;;;;;;;;;20.80;77.30;;;;;;5074101;28;20013;-80
2023/08/18 13:35:17;;;;;;;;;;;20.90;77.00;;;;;;5072715;28;19912;-84
2023/08/18 13:37:43;;;;;;;;;;;21.00;76.80;;;;;;5089063;28;19916;-83
2023/08/18 13:40:08;;;;;;;;;;;20.90;76.80;;;;;;5092412;28;20011;-83
2023/08/18 13:42:34;;;;;;;;;;;20.90;76.90;;;;;;5074213;28;19955;-81
2023/08/18 13:45:00;;;;;;;;;;;20.90;77.10;;;;;;5074225;28;19930;-84
2023/08/18 13:47:26;;;;;;;;;;;21.00;77.10;;;;;;5073449;28;19908;-82
2023/08/18 13:49:52;;;;;;;;;;;21.10;77.20;;;;;;5092061;28;19950;-83
2023/08/18 13:52:18;;;;;;;;;;;21.30;77.10;;;;;;5077711;28;19917;-83
2023/08/18 13:54:43;;;;;;;;;;;21.40;77.00;;;;;;5076060;28;19912;-82
2023/08/18 13:57:09;;;;;;;;;;;21.40;77.00;;;;;;5071824;28;20011;-77
2023/08/18 13:59:34;;;;;;;;;;;21.40;76.90;;;;;;5089508;28;20122;-74
2023/08/18 14:02:00;;;;;;;;;;;21.40;76.90;;;;;;5091423;28;19981;-80
2023/08/18 14:04:26;;;;;;;;;;;21.20;76.70;;;;;;5091100;28;20406;-77
2023/08/18 14:06:52;;;;;;;;;;;21.00;76.60;;;;;;5091105;28;19951;-76
2023/08/18 14:09:20;;;;;;;;;;;20.90;76.80;;;;;;5091407;28;20329;-81
2023/08/18 14:11:47;;;;;;;;;;;20.90;76.90;;;;;;5090202;28;19918;-83